sensor_id;sensor_type;location;lat;lon;timestamp;pressure;altitude;pressure_sealevel;temperature;humidity
54194;BME280;40102;50.906;6.972;2024-03-22T00:01:51;101574.03;;;12.68;80.11
54194;BME280;40102;50.906;6.972;2024-03-22T00:04:17;101569.03;;;12.43;81.61
54194;BME280;40102;50.906;6.972;2024-03-22T00:06:45;101570.19;;;12.20;82.85
54194;BME280;40102;50.906;6.972;2024-03-22T00:09:11;101569.97;;;12.06;83.75
54194;BME280;40102;50.906;6.972;2024-03-22T00:11:37;101564.47;;;11.90;84.13
54194;BME280;40102;50.906;6.972;2024-03-22T00:14:03;101570.44;;;11.78;84.77
54194;BME280;40102;50.906;6.972;2024-03-22T00:16:28;101562.00;;;11.67;85.53
54194;BME280;40102;50.906;6.972;2024-03-22T00:18:54;101568.44;;;11.63;86.23
54194;BME280;40102;50.906;6.972;2024-03-22T00:21:21;101567.06;;;11.54;86.46
54194;BME280;40102;50.906;6.972;2024-03-22T00:23:47;101570.09;;;11.47;87.12
54194;BME280;40102;50.906;6.972;2024-03-22T00:26:12;101561.19;;;11.46;87.14
54194;BME280;40102;50.906;6.972;2024-03-22T00:28:37;101561.31;;;11.43;87.46
54194;BME280;40102;50.906;6.972;2024-03-22T00:31:03;101559.50;;;11.44;87.69
54194;BME280;40102;50.906;6.972;2024-03-22T00:33:28;101563.19;;;11.41;87.28
54194;BME280;40102;50.906;6.972;2024-03-22T00:35:54;101561.44;;;11.40;87.67
54194;BME280;40102;50.906;6.972;2024-03-22T00:38:19;101560.66;;;11.38;88.28
54194;BME280;40102;50.906;6.972;2024-03-22T00:40:45;101559.84;;;11.36;88.29
54194;BME280;40102;50.906;6.972;2024-03-22T00:43:10;101554.56;;;11.34;88.21
54194;BME280;40102;50.906;6.972;2024-03-22T00:45:35;101549.63;;;11.25;88.77
54194;BME280;40102;50.906;6.972;2024-03-22T00:48:01;101547.09;;;11.22;89.06
54194;BME280;40102;50.906;6.972;2024-03-22T00:50:26;101533.03;;;11.17;89.44
54194;BME280;40102;50.906;6.972;2024-03-22T00:52:54;101536.78;;;11.13;89.86
54194;BME280;40102;50.906;6.972;2024-03-22T00:55:23;101534.84;;;11.17;90.41
54194;BME280;40102;50.906;6.972;2024-03-22T00:57:49;101537.84;;;11.29;90.51
54194;BME280;40102;50.906;6.972;2024-03-22T01:00:15;101524.91;;;11.39;89.44
54194;BME280;40102;50.906;6.972;2024-03-22T01:02:41;101521.19;;;11.42;88.86
54194;BME280;40102;50.906;6.972;2024-03-22T01:05:07;101519.31;;;11.44;88.49
54194;BME280;40102;50.906;6.972;2024-03-22T01:07:32;101514.97;;;11.41;88.27
54194;BME280;40102;50.906;6.972;2024-03-22T01:09:58;101511.22;;;11.45;88.63
54194;BME280;40102;50.906;6.972;2024-03-22T01:12:23;101499.84;;;11.40;88.04
54194;BME280;40102;50.906;6.972;2024-03-22T01:14:49;101490.72;;;11.25;88.61
54194;BME280;40102;50.906;6.972;2024-03-22T01:17:14;101494.41;;;11.23;89.16
54194;BME280;40102;50.906;6.972;2024-03-22T01:19:39;101497.16;;;11.21;89.72
54194;BME280;40102;50.906;6.972;2024-03-22T01:22:05;101488.03;;;11.25;89.42
54194;BME280;40102;50.906;6.972;2024-03-22T01:24:30;101496.50;;;11.35;89.14
54194;BME280;40102;50.906;6.972;2024-03-22T01:26:55;101491.88;;;11.39;88.45
54194;BME280;40102;50.906;6.972;2024-03-22T01:29:21;101492.91;;;11.36;87.92
54194;BME280;40102;50.906;6.972;2024-03-22T01:31:47;101482.47;;;11.30;88.27
54194;BME280;40102;50.906;6.972;2024-03-22T01:34:13;101483.75;;;11.21;89.17
54194;BME280;40102;50.906;6.972;2024-03-22T01:36:39;101473.41;;;11.14;89.67
54194;BME280;40102;50.906;6.972;2024-03-22T01:39:04;101477.09;;;11.11;90.49
54194;BME280;40102;50.906;6.972;2024-03-22T01:41:29;101475.22;;;11.13;90.87
54194;BME280;40102;50.906;6.972;2024-03-22T01:43:55;101474.78;;;11.22;90.82
54194;BME280;40102;50.906;6.972;2024-03-22T01:46:21;101466.41;;;11.30;89.63
54194;BME280;40102;50.906;6.972;2024-03-22T01:48:47;101461.63;;;11.36;89.85
54194;BME280;40102;50.906;6.972;2024-03-22T01:51:12;101474.38;;;11.50;89.67
54194;BME280;40102;50.906;6.972;2024-03-22T01:53:38;101453.50;;;11.57;88.14
54194;BME280;40102;50.906;6.972;2024-03-22T01:56:04;101453.28;;;11.61;87.76
54194;BME280;40102;50.906;6.972;2024-03-22T01:58:29;101452.50;;;11.59;87.35
54194;BME280;40102;50.906;6.972;2024-03-22T02:00:55;101447.00;;;11.44;87.52
54194;BME280;40102;50.906;6.972;2024-03-22T02:03:21;101444.69;;;11.36;88.60
54194;BME280;40102;50.906;6.972;2024-03-22T02:05:46;101438.75;;;11.29;89.44
54194;BME280;40102;50.906;6.972;2024-03-22T02:08:12;101441.63;;;11.44;90.15
54194;BME280;40102;50.906;6.972;2024-03-22T02:10:37;101440.03;;;11.58;89.60
54194;BME280;40102;50.906;6.972;2024-03-22T02:13:03;101428.50;;;11.75;88.57
54194;BME280;40102;50.906;6.972;2024-03-22T02:15:28;101432.34;;;11.88;87.32
54194;BME280;40102;50.906;6.972;2024-03-22T02:17:54;101425.88;;;11.92;86.08
54194;BME280;40102;50.906;6.972;2024-03-22T02:20:19;101424.94;;;11.93;86.01
54194;BME280;40102;50.906;6.972;2024-03-22T02:22:44;101418.53;;;11.96;85.52
54194;BME280;40102;50.906;6.972;2024-03-22T02:25:10;101423.19;;;11.92;85.31
54194;BME280;40102;50.906;6.972;2024-03-22T02:27:35;101421.06;;;11.99;85.47
54194;BME280;40102;50.906;6.972;2024-03-22T02:30:01;101427.53;;;11.95;84.74
54194;BME280;40102;50.906;6.972;2024-03-22T02:32:27;101417.50;;;11.81;85.27
54194;BME280;40102;50.906;6.972;2024-03-22T02:34:52;101408.69;;;11.60;86.37
54194;BME280;40102;50.906;6.972;2024-03-22T02:37:18;101407.88;;;11.58;88.41
54194;BME280;40102;50.906;6.972;2024-03-22T02:39:43;101405.34;;;11.55;87.73
54194;BME280;40102;50.906;6.972;2024-03-22T02:42:09;101403.13;;;11.46;87.89
54194;BME280;40102;50.906;6.972;2024-03-22T02:44:34;101396.31;;;11.39;88.61
54194;BME280;40102;50.906;6.972;2024-03-22T02:47:03;101393.41;;;11.44;88.82
54194;BME280;40102;50.906;6.972;2024-03-22T02:49:29;101383.66;;;11.43;88.35
54194;BME280;40102;50.906;6.972;2024-03-22T02:51:54;101388.38;;;11.38;87.94
54194;BME280;40102;50.906;6.972;2024-03-22T02:54:19;101383.16;;;11.34;88.37
54194;BME280;40102;50.906;6.972;2024-03-22T02:56:45;101382.81;;;11.23;88.59
54194;BME280;40102;50.906;6.972;2024-03-22T02:59:10;101373.25;;;11.18;89.63
54194;BME280;40102;50.906;6.972;2024-03-22T03:01:35;101378.38;;;11.22;89.90
54194;BME280;40102;50.906;6.972;2024-03-22T03:04:01;101364.13;;;11.22;89.31
54194;BME280;40102;50.906;6.972;2024-03-22T03:06:26;101372.16;;;11.22;89.29
54194;BME280;40102;50.906;6.972;2024-03-22T03:08:52;101359.50;;;11.25;89.17
54194;BME280;40102;50.906;6.972;2024-03-22T03:11:17;101356.81;;;11.25;88.53
54194;BME280;40102;50.906;6.972;2024-03-22T03:13:43;101363.97;;;11.25;88.44
54194;BME280;40102;50.906;6.972;2024-03-22T03:16:08;101361.38;;;11.23;88.40
54194;BME280;40102;50.906;6.972;2024-03-22T03:18:33;101357.19;;;11.18;89.12
54194;BME280;40102;50.906;6.972;2024-03-22T03:20:59;101357.03;;;11.21;89.16
54194;BME280;40102;50.906;6.972;2024-03-22T03:23:24;101369.56;;;11.20;89.21
54194;BME280;40102;50.906;6.972;2024-03-22T03:25:49;101363.41;;;11.18;89.03
54194;BME280;40102;50.906;6.972;2024-03-22T03:28:15;101368.75;;;11.18;89.31
54194;BME280;40102;50.906;6.972;2024-03-22T03:30:40;101356.31;;;11.17;90.13
54194;BME280;40102;50.906;6.972;2024-03-22T03:33:05;101356.25;;;11.19;90.13
54194;BME280;40102;50.906;6.972;2024-03-22T03:35:31;101352.19;;;11.29;90.41
54194;BME280;40102;50.906;6.972;2024-03-22T03:37:56;101352.03;;;11.32;89.63
54194;BME280;40102;50.906;6.972;2024-03-22T03:40:22;101345.97;;;11.28;90.06
54194;BME280;40102;50.906;6.972;2024-03-22T03:42:50;101342.63;;;11.23;90.54
54194;BME280;40102;50.906;6.972;2024-03-22T03:45:16;101340.19;;;11.19;90.78
54194;BME280;40102;50.906;6.972;2024-03-22T03:47:41;101333.47;;;11.10;91.73
54194;BME280;40102;50.906;6.972;2024-03-22T03:50:07;101338.97;;;11.07;92.08
54194;BME280;40102;50.906;6.972;2024-03-22T03:52:33;101331.16;;;11.02;92.59
54194;BME280;40102;50.906;6.972;2024-03-22T03:54:58;101326.09;;;10.96;93.35
54194;BME280;40102;50.906;6.972;2024-03-22T03:57:24;101327.91;;;10.96;93.42
54194;BME280;40102;50.906;6.972;2024-03-22T03:59:49;101324.44;;;10.94;94.16
54194;BME280;40102;50.906;6.972;2024-03-22T04:02:14;101321.09;;;10.89;94.57
54194;BME280;40102;50.906;6.972;2024-03-22T04:04:40;101323.69;;;10.90;94.80
54194;BME280;40102;50.906;6.972;2024-03-22T04:07:05;101321.09;;;10.89;94.83
54194;BME280;40102;50.906;6.972;2024-03-22T04:09:31;101317.63;;;10.87;95.10
54194;BME280;40102;50.906;6.972;2024-03-22T04:11:57;101315.03;;;10.85;95.13
54194;BME280;40102;50.906;6.972;2024-03-22T04:14:24;101318.63;;;10.84;95.64
54194;BME280;40102;50.906;6.972;2024-03-22T04:16:50;101308.94;;;10.82;95.75
54194;BME280;40102;50.906;6.972;2024-03-22T04:19:15;101311.69;;;10.80;95.77
54194;BME280;40102;50.906;6.972;2024-03-22T04:21:40;101307.88;;;10.86;96.57
54194;BME280;40102;50.906;6.972;2024-03-22T04:24:06;101311.13;;;10.92;96.13
54194;BME280;40102;50.906;6.972;2024-03-22T04:26:31;101300.25;;;10.95;95.50
54194;BME280;40102;50.906;6.972;2024-03-22T04:28:57;101300.91;;;11.00;95.50
54194;BME280;40102;50.906;6.972;2024-03-22T04:31:23;101292.00;;;11.00;94.91
54194;BME280;40102;50.906;6.972;2024-03-22T04:33:48;101289.91;;;11.07;95.32
54194;BME280;40102;50.906;6.972;2024-03-22T04:36:15;101295.38;;;11.22;95.03
54194;BME280;40102;50.906;6.972;2024-03-22T04:38:40;101298.31;;;11.35;94.67
54194;BME280;40102;50.906;6.972;2024-03-22T04:41:05;101284.94;;;11.52;93.63
54194;BME280;40102;50.906;6.972;2024-03-22T04:43:31;101287.00;;;11.64;92.07
54194;BME280;40102;50.906;6.972;2024-03-22T04:45:56;101279.22;;;11.77;91.39
54194;BME280;40102;50.906;6.972;2024-03-22T04:48:22;101274.25;;;11.87;90.44
54194;BME280;40102;50.906;6.972;2024-03-22T04:50:50;101270.22;;;11.95;89.41
54194;BME280;40102;50.906;6.972;2024-03-22T04:53:21;101268.66;;;11.91;88.53
54194;BME280;40102;50.906;6.972;2024-03-22T04:55:47;101264.09;;;11.93;88.53
54194;BME280;40102;50.906;6.972;2024-03-22T04:58:17;101256.91;;;11.94;87.75
54194;BME280;40102;50.906;6.972;2024-03-22T05:00:44;101257.72;;;11.79;87.74
54194;BME280;40102;50.906;6.972;2024-03-22T05:03:10;101251.63;;;11.58;88.99
54194;BME280;40102;50.906;6.972;2024-03-22T05:05:37;101254.13;;;11.44;90.32
54194;BME280;40102;50.906;6.972;2024-03-22T05:08:06;101251.28;;;11.29;91.01
54194;BME280;40102;50.906;6.972;2024-03-22T05:10:32;101240.00;;;11.23;91.92
54194;BME280;40102;50.906;6.972;2024-03-22T05:12:58;101236.69;;;11.18;92.22
54194;BME280;40102;50.906;6.972;2024-03-22T05:15:24;101246.78;;;11.13;92.64
54194;BME280;40102;50.906;6.972;2024-03-22T05:17:52;101244.25;;;11.10;93.20
54194;BME280;40102;50.906;6.972;2024-03-22T05:20:18;101244.97;;;11.13;93.31
54194;BME280;40102;50.906;6.972;2024-03-22T05:22:44;101248.59;;;11.12;93.13
54194;BME280;40102;50.906;6.972;2024-03-22T05:25:09;101240.53;;;11.12;93.70
54194;BME280;40102;50.906;6.972;2024-03-22T05:27:35;101245.59;;;11.18;93.81
54194;BME280;40102;50.906;6.972;2024-03-22T05:30:01;101238.28;;;11.22;93.57
54194;BME280;40102;50.906;6.972;2024-03-22T05:32:26;101239.00;;;11.25;93.84
54194;BME280;40102;50.906;6.972;2024-03-22T05:34:52;101231.66;;;11.29;93.47
54194;BME280;40102;50.906;6.972;2024-03-22T05:37:18;101229.53;;;11.35;93.76
54194;BME280;40102;50.906;6.972;2024-03-22T05:39:43;101230.03;;;11.44;93.41
54194;BME280;40102;50.906;6.972;2024-03-22T05:42:09;101219.00;;;11.50;92.28
54194;BME280;40102;50.906;6.972;2024-03-22T05:44:34;101233.03;;;11.55;91.80
54194;BME280;40102;50.906;6.972;2024-03-22T05:47:00;101240.81;;;11.59;91.43
54194;BME280;40102;50.906;6.972;2024-03-22T05:49:25;101226.16;;;11.66;91.32
54194;BME280;40102;50.906;6.972;2024-03-22T05:51:51;101220.41;;;11.74;90.77
54194;BME280;40102;50.906;6.972;2024-03-22T05:54:16;101230.59;;;11.85;89.66
54194;BME280;40102;50.906;6.972;2024-03-22T05:56:42;101231.22;;;11.90;89.16
54194;BME280;40102;50.906;6.972;2024-03-22T05:59:07;101230.81;;;11.97;88.93
54194;BME280;40102;50.906;6.972;2024-03-22T06:01:32;101224.31;;;12.02;88.19
54194;BME280;40102;50.906;6.972;2024-03-22T06:03:58;101221.41;;;12.06;87.95
54194;BME280;40102;50.906;6.972;2024-03-22T06:06:23;101226.59;;;12.09;87.79
54194;BME280;40102;50.906;6.972;2024-03-22T06:08:50;101217.44;;;12.13;87.21
54194;BME280;40102;50.906;6.972;2024-03-22T06:11:18;101212.06;;;12.13;87.10
54194;BME280;40102;50.906;6.972;2024-03-22T06:13:43;101218.06;;;12.18;86.83
54194;BME280;40102;50.906;6.972;2024-03-22T06:16:09;101214.50;;;12.18;86.78
54194;BME280;40102;50.906;6.972;2024-03-22T06:18:34;101206.53;;;12.16;86.55
54194;BME280;40102;50.906;6.972;2024-03-22T06:20:59;101209.31;;;12.15;86.63
54194;BME280;40102;50.906;6.972;2024-03-22T06:23:25;101201.34;;;12.13;86.77
54194;BME280;40102;50.906;6.972;2024-03-22T06:25:54;101202.38;;;12.11;86.74
54194;BME280;40102;50.906;6.972;2024-03-22T06:28:20;101204.91;;;12.14;87.12
54194;BME280;40102;50.906;6.972;2024-03-22T06:30:46;101209.06;;;12.19;86.95
54194;BME280;40102;50.906;6.972;2024-03-22T06:33:11;101203.53;;;12.22;86.58
54194;BME280;40102;50.906;6.972;2024-03-22T06:35:37;101200.69;;;12.25;86.54
54194;BME280;40102;50.906;6.972;2024-03-22T06:38:02;101204.84;;;12.31;86.07
54194;BME280;40102;50.906;6.972;2024-03-22T06:40:28;101199.13;;;12.37;85.92
54194;BME280;40102;50.906;6.972;2024-03-22T06:42:54;101197.22;;;12.39;85.85
54194;BME280;40102;50.906;6.972;2024-03-22T06:45:19;101201.22;;;12.48;88.32
54194;BME280;40102;50.906;6.972;2024-03-22T06:47:45;101196.28;;;12.87;89.62
54194;BME280;40102;50.906;6.972;2024-03-22T06:50:11;101197.44;;;13.29;88.63
54194;BME280;40102;50.906;6.972;2024-03-22T06:52:36;101200.00;;;13.60;86.92
54194;BME280;40102;50.906;6.972;2024-03-22T06:55:02;101197.84;;;13.81;84.79
54194;BME280;40102;50.906;6.972;2024-03-22T06:57:28;101201.31;;;13.98;83.14
54194;BME280;40102;50.906;6.972;2024-03-22T06:59:53;101187.47;;;14.04;81.85
54194;BME280;40102;50.906;6.972;2024-03-22T07:02:19;101196.91;;;14.11;81.01
54194;BME280;40102;50.906;6.972;2024-03-22T07:04:45;101190.34;;;14.15;80.48
54194;BME280;40102;50.906;6.972;2024-03-22T07:07:10;101190.34;;;14.15;80.19
54194;BME280;40102;50.906;6.972;2024-03-22T07:09:36;101182.88;;;14.20;79.64
54194;BME280;40102;50.906;6.972;2024-03-22T07:12:01;101189.22;;;14.19;79.56
54194;BME280;40102;50.906;6.972;2024-03-22T07:14:27;101183.72;;;14.20;79.56
54194;BME280;40102;50.906;6.972;2024-03-22T07:16:52;101182.88;;;14.20;79.55
54194;BME280;40102;50.906;6.972;2024-03-22T07:19:21;101181.91;;;14.21;79.40
54194;BME280;40102;50.906;6.972;2024-03-22T07:21:47;101181.72;;;14.24;79.62
54194;BME280;40102;50.906;6.972;2024-03-22T07:24:13;101181.91;;;14.21;79.26
54194;BME280;40102;50.906;6.972;2024-03-22T07:26:38;101183.16;;;14.15;78.65
54194;BME280;40102;50.906;6.972;2024-03-22T07:29:04;101186.31;;;14.08;79.33
54194;BME280;40102;50.906;6.972;2024-03-22T07:31:30;101181.34;;;14.02;79.03
54194;BME280;40102;50.906;6.972;2024-03-22T07:33:55;101179.22;;;13.92;78.35
54194;BME280;40102;50.906;6.972;2024-03-22T07:36:21;101176.72;;;13.89;79.49
54194;BME280;40102;50.906;6.972;2024-03-22T07:38:46;101171.34;;;13.89;79.50
54194;BME280;40102;50.906;6.972;2024-03-22T07:41:12;101169.91;;;13.84;78.47
54194;BME280;40102;50.906;6.972;2024-03-22T07:43:37;101169.88;;;13.70;79.62
54194;BME280;40102;50.906;6.972;2024-03-22T07:46:02;101167.28;;;13.68;80.50
54194;BME280;40102;50.906;6.972;2024-03-22T07:48:28;101165.97;;;13.75;80.35
54194;BME280;40102;50.906;6.972;2024-03-22T07:50:57;101158.84;;;13.74;79.45
54194;BME280;40102;50.906;6.972;2024-03-22T07:53:23;101168.66;;;13.75;79.15
54194;BME280;40102;50.906;6.972;2024-03-22T07:55:48;101158.84;;;13.74;79.80
54194;BME280;40102;50.906;6.972;2024-03-22T07:58:13;101164.31;;;13.73;79.60
54194;BME280;40102;50.906;6.972;2024-03-22T08:00:39;101157.59;;;13.66;79.47
54194;BME280;40102;50.906;6.972;2024-03-22T08:03:04;101156.53;;;13.54;79.86
54194;BME280;40102;50.906;6.972;2024-03-22T08:05:30;101156.50;;;13.40;80.65
54194;BME280;40102;50.906;6.972;2024-03-22T08:07:55;101144.75;;;13.26;81.41
54194;BME280;40102;50.906;6.972;2024-03-22T08:10:21;101156.66;;;13.22;82.29
54194;BME280;40102;50.906;6.972;2024-03-22T08:12:46;101148.16;;;13.14;82.40
54194;BME280;40102;50.906;6.972;2024-03-22T08:15:11;101154.56;;;13.12;82.74
54194;BME280;40102;50.906;6.972;2024-03-22T08:17:37;101150.75;;;13.16;82.81
54194;BME280;40102;50.906;6.972;2024-03-22T08:20:02;101158.03;;;13.14;82.56
54194;BME280;40102;50.906;6.972;2024-03-22T08:22:28;101153.38;;;13.17;82.61
54194;BME280;40102;50.906;6.972;2024-03-22T08:24:53;101151.53;;;13.18;82.73
54194;BME280;40102;50.906;6.972;2024-03-22T08:27:21;101146.94;;;13.20;82.67
54194;BME280;40102;50.906;6.972;2024-03-22T08:29:46;101152.13;;;13.23;82.91
54194;BME280;40102;50.906;6.972;2024-03-22T08:32:12;101144.94;;;13.23;82.98
54194;BME280;40102;50.906;6.972;2024-03-22T08:34:37;101144.84;;;13.25;82.65
54194;BME280;40102;50.906;6.972;2024-03-22T08:37:03;101149.00;;;13.31;82.29
54194;BME280;40102;50.906;6.972;2024-03-22T08:39:29;101133.16;;;13.26;82.35
54194;BME280;40102;50.906;6.972;2024-03-22T08:41:55;101134.59;;;13.32;82.16
54194;BME280;40102;50.906;6.972;2024-03-22T08:44:21;101123.66;;;13.35;82.10
54194;BME280;40102;50.906;6.972;2024-03-22T08:46:47;101128.84;;;13.38;82.06
54194;BME280;40102;50.906;6.972;2024-03-22T08:49:12;101124.44;;;13.37;82.23
54194;BME280;40102;50.906;6.972;2024-03-22T08:51:38;101123.19;;;13.42;82.00
54194;BME280;40102;50.906;6.972;2024-03-22T08:54:03;101123.09;;;13.44;81.64
54194;BME280;40102;50.906;6.972;2024-03-22T08:56:29;101127.63;;;13.43;81.37
54194;BME280;40102;50.906;6.972;2024-03-22T08:58:55;101122.34;;;13.42;81.46
54194;BME280;40102;50.906;6.972;2024-03-22T09:01:21;101120.22;;;13.47;81.32
54194;BME280;40102;50.906;6.972;2024-03-22T09:03:47;101128.38;;;13.45;80.91
54194;BME280;40102;50.906;6.972;2024-03-22T09:06:14;101126.38;;;13.49;80.79
54194;BME280;40102;50.906;6.972;2024-03-22T09:08:40;101125.41;;;13.50;79.98
54194;BME280;40102;50.906;6.972;2024-03-22T09:11:05;101124.09;;;13.57;79.63
54194;BME280;40102;50.906;6.972;2024-03-22T09:13:31;101128.69;;;13.55;79.66
54194;BME280;40102;50.906;6.972;2024-03-22T09:15:58;101121.22;;;13.60;79.18
54194;BME280;40102;50.906;6.972;2024-03-22T09:18:24;101113.22;;;13.58;79.43
54194;BME280;40102;50.906;6.972;2024-03-22T09:20:49;101110.66;;;13.57;78.81
54194;BME280;40102;50.906;6.972;2024-03-22T09:23:14;101114.97;;;13.59;78.29
54194;BME280;40102;50.906;6.972;2024-03-22T09:25:40;101108.44;;;13.64;77.86
54194;BME280;40102;50.906;6.972;2024-03-22T09:28:05;101122.56;;;13.67;77.07
54194;BME280;40102;50.906;6.972;2024-03-22T09:30:31;101115.84;;;13.74;76.32
54194;BME280;40102;50.906;6.972;2024-03-22T09:32:56;101112.00;;;13.78;74.43
54194;BME280;40102;50.906;6.972;2024-03-22T09:35:23;101117.47;;;13.77;74.30
54194;BME280;40102;50.906;6.972;2024-03-22T09:37:48;101108.63;;;13.89;71.95
54194;BME280;40102;50.906;6.972;2024-03-22T09:40:13;101105.38;;;13.84;72.26
54194;BME280;40102;50.906;6.972;2024-03-22T09:42:41;101091.81;;;13.85;72.37
54194;BME280;40102;50.906;6.972;2024-03-22T09:45:11;101093.94;;;13.80;73.39
54194;BME280;40102;50.906;6.972;2024-03-22T09:47:36;101090.69;;;13.75;73.19
54194;BME280;40102;50.906;6.972;2024-03-22T09:50:05;101081.84;;;13.73;73.37
54194;BME280;40102;50.906;6.972;2024-03-22T09:52:33;101080.88;;;13.74;73.64
54194;BME280;40102;50.906;6.972;2024-03-22T09:54:58;101087.13;;;13.75;74.00
54194;BME280;40102;50.906;6.972;2024-03-22T09:57:24;101075.31;;;13.77;73.75
54194;BME280;40102;50.906;6.972;2024-03-22T09:59:50;101082.69;;;13.88;73.33
54194;BME280;40102;50.906;6.972;2024-03-22T10:02:16;101075.50;;;13.88;73.17
54194;BME280;40102;50.906;6.972;2024-03-22T10:04:41;101089.41;;;13.95;72.38
54194;BME280;40102;50.906;6.972;2024-03-22T10:07:07;101075.38;;;14.04;71.38
54194;BME280;40102;50.906;6.972;2024-03-22T10:09:36;101067.97;;;14.08;71.15
54194;BME280;40102;50.906;6.972;2024-03-22T10:12:02;101066.06;;;14.10;71.20
54194;BME280;40102;50.906;6.972;2024-03-22T10:14:28;101063.47;;;14.08;71.13
54194;BME280;40102;50.906;6.972;2024-03-22T10:16:54;101066.16;;;14.08;71.40
54194;BME280;40102;50.906;6.972;2024-03-22T10:19:20;101068.66;;;14.11;71.18
54194;BME280;40102;50.906;6.972;2024-03-22T10:21:47;101050.00;;;14.08;71.66
54194;BME280;40102;50.906;6.972;2024-03-22T10:24:14;101050.31;;;14.04;71.87
54194;BME280;40102;50.906;6.972;2024-03-22T10:26:39;101059.53;;;14.00;72.03
54194;BME280;40102;50.906;6.972;2024-03-22T10:29:08;101072.97;;;14.00;71.83
54194;BME280;40102;50.906;6.972;2024-03-22T10:31:35;101061.84;;;14.06;70.74
54194;BME280;40102;50.906;6.972;2024-03-22T10:34:02;101060.88;;;14.07;70.71
54194;BME280;40102;50.906;6.972;2024-03-22T10:36:29;101043.66;;;14.09;70.73
54194;BME280;40102;50.906;6.972;2024-03-22T10:38:56;101034.53;;;14.12;70.38
54194;BME280;40102;50.906;6.972;2024-03-22T10:41:23;101032.50;;;14.15;70.22
54194;BME280;40102;50.906;6.972;2024-03-22T10:43:49;101038.09;;;14.12;71.00
54194;BME280;40102;50.906;6.972;2024-03-22T10:46:16;101029.25;;;14.10;71.46
54194;BME280;40102;50.906;6.972;2024-03-22T10:48:45;101032.81;;;14.11;70.81
54194;BME280;40102;50.906;6.972;2024-03-22T10:51:10;101027.31;;;14.12;70.35
54194;BME280;40102;50.906;6.972;2024-03-22T10:53:37;101035.09;;;14.17;70.36
54194;BME280;40102;50.906;6.972;2024-03-22T10:56:04;101027.38;;;14.25;69.72
54194;BME280;40102;50.906;6.972;2024-03-22T10:58:30;101028.16;;;14.27;69.26
54194;BME280;40102;50.906;6.972;2024-03-22T11:00:56;101018.69;;;14.34;68.74
54194;BME280;40102;50.906;6.972;2024-03-22T11:03:23;101013.31;;;14.34;69.19
54194;BME280;40102;50.906;6.972;2024-03-22T11:05:54;101012.88;;;14.27;70.56
54194;BME280;40102;50.906;6.972;2024-03-22T11:08:25;101012.09;;;14.25;69.44
54194;BME280;40102;50.906;6.972;2024-03-22T11:10:51;101016.53;;;14.26;68.83
54194;BME280;40102;50.906;6.972;2024-03-22T11:13:17;100996.53;;;14.31;68.30
54194;BME280;40102;50.906;6.972;2024-03-22T11:15:43;101010.06;;;14.29;69.04
54194;BME280;40102;50.906;6.972;2024-03-22T11:18:08;100991.66;;;14.23;69.54
54194;BME280;40102;50.906;6.972;2024-03-22T11:20:37;100984.66;;;14.20;69.19
54194;BME280;40102;50.906;6.972;2024-03-22T11:23:06;100980.88;;;14.23;68.71
54194;BME280;40102;50.906;6.972;2024-03-22T11:25:32;101001.44;;;14.24;68.42
54194;BME280;40102;50.906;6.972;2024-03-22T11:27:58;100980.16;;;14.34;68.63
54194;BME280;40102;50.906;6.972;2024-03-22T11:30:26;100981.91;;;14.35;68.03
54194;BME280;40102;50.906;6.972;2024-03-22T11:32:52;100981.59;;;14.39;67.54
54194;BME280;40102;50.906;6.972;2024-03-22T11:35:17;100978.91;;;14.39;68.00
54194;BME280;40102;50.906;6.972;2024-03-22T11:37:43;100979.59;;;14.43;68.49
54194;BME280;40102;50.906;6.972;2024-03-22T11:40:09;100974.97;;;14.45;68.43
54194;BME280;40102;50.906;6.972;2024-03-22T11:42:39;100973.03;;;14.47;68.30
54194;BME280;40102;50.906;6.972;2024-03-22T11:45:08;100979.38;;;14.46;68.67
54194;BME280;40102;50.906;6.972;2024-03-22T11:47:34;100957.94;;;14.44;68.86
54194;BME280;40102;50.906;6.972;2024-03-22T11:50:01;100948.53;;;14.37;69.24
54194;BME280;40102;50.906;6.972;2024-03-22T11:52:27;100957.69;;;14.35;69.89
54194;BME280;40102;50.906;6.972;2024-03-22T11:54:52;100960.06;;;14.39;69.54
54194;BME280;40102;50.906;6.972;2024-03-22T11:57:20;100954.50;;;14.42;69.16
54194;BME280;40102;50.906;6.972;2024-03-22T11:59:45;100952.00;;;14.39;69.42
54194;BME280;40102;50.906;6.972;2024-03-22T12:02:11;100948.63;;;14.36;70.08
54194;BME280;40102;50.906;6.972;2024-03-22T12:04:40;100951.44;;;14.34;70.37
54194;BME280;40102;50.906;6.972;2024-03-22T12:07:10;100961.53;;;14.31;70.29
54194;BME280;40102;50.906;6.972;2024-03-22T12:09:35;100952.59;;;14.30;69.12
54194;BME280;40102;50.906;6.972;2024-03-22T12:12:01;100940.13;;;14.29;69.21
54194;BME280;40102;50.906;6.972;2024-03-22T12:14:26;100948.75;;;14.34;68.44
54194;BME280;40102;50.906;6.972;2024-03-22T12:16:54;100940.66;;;14.34;68.33
54194;BME280;40102;50.906;6.972;2024-03-22T12:19:20;100936.25;;;14.33;68.76
54194;BME280;40102;50.906;6.972;2024-03-22T12:21:45;100928.06;;;14.35;68.38
54194;BME280;40102;50.906;6.972;2024-03-22T12:24:10;100930.88;;;14.33;68.28
54194;BME280;40102;50.906;6.972;2024-03-22T12:26:36;100925.50;;;14.33;69.29
54194;BME280;40102;50.906;6.972;2024-03-22T12:29:01;100922.81;;;14.33;69.07
54194;BME280;40102;50.906;6.972;2024-03-22T12:31:26;100914.28;;;14.26;69.58
54194;BME280;40102;50.906;6.972;2024-03-22T12:33:52;100927.31;;;14.33;69.48
54194;BME280;40102;50.906;6.972;2024-03-22T12:36:17;100913.66;;;14.36;68.18
54194;BME280;40102;50.906;6.972;2024-03-22T12:38:43;100915.59;;;14.34;67.73
54194;BME280;40102;50.906;6.972;2024-03-22T12:41:08;100908.50;;;14.33;68.16
54194;BME280;40102;50.906;6.972;2024-03-22T12:43:34;100907.63;;;14.32;68.65